createdAt,value
2023-05-02T00:01:05.095Z,10.60
2023-05-02T00:03:32.963Z,10.42
2023-05-02T00:06:00.828Z,10.18
2023-05-02T00:08:28.382Z,10.27
2023-05-02T00:10:55.894Z,10.49
2023-05-02T00:13:23.529Z,10.77
2023-05-02T00:15:51.070Z,10.27
2023-05-02T00:18:20.058Z,10.40
2023-05-02T00:20:47.582Z,9.88
2023-05-02T00:23:15.260Z,10.11
2023-05-02T00:25:45.395Z,10.21
2023-05-02T00:28:13.891Z,10.08
2023-05-02T00:30:45.767Z,10.26
2023-05-02T00:33:14.582Z,10.43
2023-05-02T00:35:43.538Z,10.31
2023-05-02T00:38:11.072Z,10.19
2023-05-02T00:40:45.879Z,10.04
2023-05-02T00:43:13.440Z,10.15
2023-05-02T00:45:41.756Z,10.20
2023-05-02T00:48:09.926Z,9.72
2023-05-02T00:50:38.304Z,9.76
2023-05-02T00:53:07.286Z,9.58
2023-05-02T00:55:34.949Z,9.41
2023-05-02T00:58:02.698Z,9.32
2023-05-02T01:00:32.208Z,9.34
2023-05-02T01:03:02.779Z,9.55
2023-05-02T01:05:32.110Z,9.50
2023-05-02T01:08:02.208Z,8.72
2023-05-02T01:10:33.644Z,9.06
2023-05-02T01:13:01.550Z,9.12
2023-05-02T01:15:29.084Z,9.23
2023-05-02T01:17:56.793Z,8.91
2023-05-02T01:20:25.549Z,9.00
2023-05-02T01:22:53.568Z,8.98
2023-05-02T01:25:23.657Z,8.91
2023-05-02T01:27:56.807Z,8.91
2023-05-02T01:30:25.756Z,8.51
2023-05-02T01:32:53.388Z,8.63
2023-05-02T01:35:21.270Z,8.16
2023-05-02T01:37:49.188Z,7.80
2023-05-02T01:40:18.406Z,7.46
2023-05-02T01:42:46.692Z,8.01
2023-05-02T01:45:14.261Z,8.22
2023-05-02T01:47:43.698Z,8.38
2023-05-02T01:50:12.988Z,8.47
2023-05-02T01:52:40.690Z,8.40
2023-05-02T01:55:08.943Z,8.58
2023-05-02T01:57:36.485Z,8.67
2023-05-02T02:00:04.899Z,8.55
2023-05-02T02:02:40.412Z,8.56
2023-05-02T02:05:10.449Z,8.61
2023-05-02T02:07:38.036Z,8.79
2023-05-02T02:10:05.880Z,8.77
2023-05-02T02:12:36.833Z,8.76
2023-05-02T02:15:05.187Z,8.25
2023-05-02T02:17:33.458Z,8.39
2023-05-02T02:20:02.218Z,8.41
2023-05-02T02:22:31.455Z,8.43
2023-05-02T02:24:59.016Z,8.62
2023-05-02T02:27:27.032Z,8.68
2023-05-02T02:29:55.378Z,8.55
2023-05-02T02:32:22.972Z,8.56
2023-05-02T02:34:50.581Z,8.38
2023-05-02T02:37:19.159Z,8.71
2023-05-02T02:39:52.328Z,8.85
2023-05-02T02:42:20.320Z,8.79
2023-05-02T02:44:50.456Z,9.09
2023-05-02T02:47:21.104Z,9.07
2023-05-02T02:49:49.211Z,8.90
2023-05-02T02:52:18.784Z,8.77
2023-05-02T02:54:46.705Z,8.59
2023-05-02T02:57:18.091Z,8.71
2023-05-02T02:59:48.243Z,8.37
2023-05-02T03:02:16.180Z,8.47
2023-05-02T03:04:43.898Z,8.65
2023-05-02T03:07:11.666Z,8.75
2023-05-02T03:09:42.673Z,8.69
2023-05-02T03:12:12.580Z,8.58
2023-05-02T03:14:42.354Z,8.51
2023-05-02T03:17:09.900Z,8.48
2023-05-02T03:19:38.097Z,8.32
2023-05-02T03:22:06.661Z,8.08
2023-05-02T03:24:36.293Z,8.23
2023-05-02T03:27:04.832Z,8.58
2023-05-02T03:29:39.053Z,8.70
2023-05-02T03:32:08.053Z,8.22
2023-05-02T03:34:37.938Z,7.96
2023-05-02T03:37:05.732Z,7.81
2023-05-02T03:39:33.376Z,7.88
2023-05-02T03:42:02.901Z,7.84
2023-05-02T03:44:30.460Z,7.73
2023-05-02T03:46:58.124Z,8.12
2023-05-02T03:49:27.910Z,7.90
2023-05-02T03:51:55.911Z,7.18
2023-05-02T03:54:29.097Z,7.87
2023-05-02T03:56:58.194Z,7.64
2023-05-02T03:59:30.396Z,7.90
2023-05-02T04:01:59.088Z,8.07
2023-05-02T04:04:38.348Z,7.99
2023-05-02T04:07:07.870Z,8.13
2023-05-02T04:09:35.383Z,7.88
2023-05-02T04:12:08.238Z,8.01
2023-05-02T04:14:39.551Z,8.18
2023-05-02T04:17:07.812Z,8.04
2023-05-02T04:19:41.414Z,8.20
2023-05-02T04:22:10.888Z,8.02
2023-05-02T04:24:42.646Z,7.98
2023-05-02T04:27:12.435Z,7.77
2023-05-02T04:29:41.260Z,7.78
2023-05-02T04:32:10.351Z,7.80
2023-05-02T04:34:38.130Z,8.09
2023-05-02T04:37:07.463Z,8.17
2023-05-02T04:39:35.246Z,8.29
2023-05-02T04:42:07.223Z,8.18
2023-05-02T04:44:41.364Z,7.97
2023-05-02T04:47:09.378Z,7.98
2023-05-02T04:49:36.932Z,8.22
2023-05-02T04:52:04.510Z,8.28
2023-05-02T04:54:35.155Z,7.66
2023-05-02T04:57:03.785Z,8.14
2023-05-02T04:59:34.012Z,8.14
2023-05-02T05:02:03.011Z,8.32
2023-05-02T05:04:30.665Z,8.50
2023-05-02T05:06:58.660Z,8.59
2023-05-02T05:09:28.654Z,8.67
2023-05-02T05:11:57.496Z,8.58
2023-05-02T05:14:25.352Z,8.65
2023-05-02T05:16:55.382Z,8.98
2023-05-02T05:19:23.764Z,9.10
2023-05-02T05:21:51.301Z,9.17
2023-05-02T05:24:20.480Z,9.41
2023-05-02T05:26:49.225Z,9.37
2023-05-02T05:29:19.092Z,9.42
2023-05-02T05:31:46.667Z,9.42
2023-05-02T05:34:17.982Z,9.20
2023-05-02T05:36:47.097Z,9.45
2023-05-02T05:39:15.415Z,9.76
2023-05-02T05:41:45.022Z,9.98
2023-05-02T05:44:14.978Z,10.04
2023-05-02T05:46:43.860Z,10.09
2023-05-02T05:49:13.107Z,9.66
2023-05-02T05:51:42.976Z,9.21
2023-05-02T05:54:11.226Z,9.39
2023-05-02T05:56:39.514Z,9.34
2023-05-02T05:59:12.065Z,9.50
2023-05-02T06:01:39.585Z,9.56
2023-05-02T06:04:09.282Z,9.41
2023-05-02T06:06:40.997Z,9.87
2023-05-02T06:09:08.929Z,10.11
2023-05-02T06:11:37.875Z,10.37
2023-05-02T06:14:05.505Z,10.31
2023-05-02T06:16:33.096Z,10.25
2023-05-02T06:19:00.796Z,10.09
2023-05-02T06:21:29.671Z,10.40
2023-05-02T06:23:57.179Z,10.36
2023-05-02T06:26:24.737Z,10.19
2023-05-02T06:28:52.276Z,10.47
2023-05-02T06:31:19.795Z,10.49
2023-05-02T06:33:47.340Z,10.77
2023-05-02T06:36:14.842Z,10.81
2023-05-02T06:38:43.732Z,11.03
2023-05-02T06:41:14.897Z,10.96
2023-05-02T06:43:43.521Z,10.69
2023-05-02T06:46:11.097Z,10.36
2023-05-02T06:48:38.622Z,10.40
2023-05-02T06:51:06.186Z,10.62
2023-05-02T06:53:34.254Z,10.38
2023-05-02T06:56:03.272Z,10.17
2023-05-02T06:58:31.071Z,10.08
2023-05-02T07:00:58.635Z,10.02
2023-05-02T07:03:26.469Z,10.05
2023-05-02T07:05:53.959Z,10.03
2023-05-02T07:08:22.529Z,9.99
2023-05-02T07:10:50.061Z,10.11
2023-05-02T07:13:18.908Z,10.25
2023-05-02T07:15:46.439Z,10.04
2023-05-02T07:18:14.079Z,10.03
2023-05-02T07:20:42.480Z,10.11
2023-05-02T07:23:10.119Z,10.41
2023-05-02T07:25:37.790Z,10.12
2023-05-02T07:28:05.396Z,10.19
2023-05-02T07:30:34.232Z,10.51
2023-05-02T07:33:01.867Z,10.20
2023-05-02T07:35:29.458Z,10.22
2023-05-02T07:37:57.054Z,10.59
2023-05-02T07:40:24.709Z,10.60
2023-05-02T07:42:52.272Z,10.40
2023-05-02T07:45:19.938Z,10.30
2023-05-02T07:47:48.918Z,10.20
2023-05-02T07:50:16.674Z,10.24
2023-05-02T07:52:44.376Z,10.63
2023-05-02T07:55:12.063Z,10.63
2023-05-02T07:57:40.702Z,10.53
2023-05-02T08:00:10.253Z,10.79
2023-05-02T08:02:40.877Z,10.88
2023-05-02T08:05:10.391Z,11.31
2023-05-02T08:07:38.236Z,11.10
2023-05-02T08:10:06.285Z,10.88
2023-05-02T08:12:33.851Z,10.89
2023-05-02T08:15:03.422Z,11.04
2023-05-02T08:17:31.898Z,11.22
2023-05-02T08:20:02.001Z,11.39
2023-05-02T08:22:31.850Z,11.73
2023-05-02T08:24:59.427Z,11.85
2023-05-02T08:27:26.960Z,11.65
2023-05-02T08:29:54.507Z,11.24
2023-05-02T08:32:22.369Z,11.64
2023-05-02T08:34:49.911Z,11.52
2023-05-02T08:37:18.453Z,11.22
2023-05-02T08:39:47.323Z,11.44
2023-05-02T08:42:14.855Z,11.66
2023-05-02T08:44:42.436Z,11.60
2023-05-02T08:47:11.101Z,11.89
2023-05-02T08:49:38.844Z,11.92
2023-05-02T08:52:06.768Z,11.74
2023-05-02T08:54:34.332Z,11.41
2023-05-02T08:57:03.527Z,11.30
2023-05-02T08:59:31.144Z,11.60
2023-05-02T09:02:00.396Z,11.64
2023-05-02T09:04:30.205Z,11.82
2023-05-02T09:06:57.765Z,11.77
2023-05-02T09:09:25.485Z,11.51
2023-05-02T09:11:53.069Z,11.26
2023-05-02T09:14:22.091Z,11.43
2023-05-02T09:16:49.603Z,11.65
2023-05-02T09:19:24.970Z,11.55
2023-05-02T09:21:52.493Z,11.72
2023-05-02T09:24:20.344Z,11.95
2023-05-02T09:27:03.331Z,12.13
2023-05-02T09:29:38.434Z,11.69
2023-05-02T09:32:08.614Z,11.50
2023-05-02T09:34:41.580Z,11.60
2023-05-02T09:37:11.485Z,11.56
2023-05-02T09:39:39.033Z,11.75
2023-05-02T09:42:06.786Z,11.50
2023-05-02T09:44:41.697Z,11.36
2023-05-02T09:47:09.473Z,11.74
2023-05-02T09:49:42.499Z,11.81
2023-05-02T09:52:13.187Z,12.12
2023-05-02T09:54:42.848Z,12.48
2023-05-02T09:57:16.536Z,12.32
2023-05-02T09:59:55.839Z,12.16
2023-05-02T10:02:23.441Z,12.45
2023-05-02T10:04:51.142Z,12.31
2023-05-02T10:07:18.746Z,12.37
2023-05-02T10:09:49.319Z,12.21
2023-05-02T10:12:27.082Z,12.45
2023-05-02T10:14:57.066Z,12.45
2023-05-02T10:17:30.496Z,12.09
2023-05-02T10:19:58.442Z,12.04
2023-05-02T10:22:26.017Z,12.04
2023-05-02T10:24:53.749Z,12.31
2023-05-02T10:27:41.380Z,12.11
2023-05-02T10:30:14.552Z,12.53
2023-05-02T10:32:46.485Z,12.13
2023-05-02T10:35:13.987Z,12.48
2023-05-02T10:37:43.586Z,12.30
2023-05-02T10:40:14.389Z,12.78
2023-05-02T10:42:45.742Z,12.50
2023-05-02T10:45:30.655Z,12.40
2023-05-02T10:48:13.186Z,12.49
2023-05-02T10:50:44.070Z,12.56
2023-05-02T10:53:27.342Z,13.16
2023-05-02T10:56:18.756Z,13.15
2023-05-02T10:58:46.400Z,12.91
2023-05-02T11:01:36.523Z,13.02
2023-05-02T11:04:05.614Z,13.64
2023-05-02T11:06:34.912Z,13.68
2023-05-02T11:09:21.583Z,13.07
2023-05-02T11:11:49.665Z,13.16
2023-05-02T11:14:32.557Z,13.14
2023-05-02T11:17:13.646Z,13.37
2023-05-02T11:20:01.743Z,13.15
2023-05-02T11:22:33.787Z,13.28
2023-05-02T11:25:01.499Z,13.04
2023-05-02T11:27:39.223Z,13.03
2023-05-02T11:30:08.813Z,12.83
2023-05-02T11:32:59.337Z,13.17
2023-05-02T11:35:31.254Z,12.86
2023-05-02T11:38:00.752Z,12.79
2023-05-02T11:40:28.576Z,12.88
2023-05-02T11:42:56.219Z,12.73
2023-05-02T11:45:24.029Z,12.90
2023-05-02T11:47:51.619Z,13.04
2023-05-02T11:50:19.191Z,13.24
2023-05-02T11:52:47.077Z,12.96
2023-05-02T11:55:16.383Z,12.82
2023-05-02T11:57:47.090Z,12.82
2023-05-02T12:00:15.353Z,12.63
2023-05-02T12:02:43.338Z,12.37
2023-05-02T12:05:13.106Z,12.71
2023-05-02T12:07:41.235Z,13.03
2023-05-02T12:10:09.509Z,12.55
2023-05-02T12:12:38.969Z,12.82
2023-05-02T12:15:06.933Z,12.76
2023-05-02T12:17:34.585Z,13.40
2023-05-02T12:20:02.169Z,12.96
2023-05-02T12:22:29.790Z,12.48
2023-05-02T12:24:57.414Z,12.86
2023-05-02T12:27:25.082Z,13.04
2023-05-02T12:29:54.908Z,13.52
2023-05-02T12:32:28.217Z,13.38
2023-05-02T12:34:55.948Z,13.70
2023-05-02T12:37:23.731Z,13.36
2023-05-02T12:39:51.361Z,13.45
2023-05-02T12:42:20.007Z,14.16
2023-05-02T12:44:47.888Z,14.58
2023-05-02T12:47:17.374Z,13.81
2023-05-02T12:49:51.498Z,13.87
2023-05-02T12:52:19.164Z,14.45
2023-05-02T12:54:52.186Z,14.30
2023-05-02T12:57:23.628Z,14.21
2023-05-02T12:59:53.786Z,14.87
2023-05-02T13:02:23.057Z,14.53
2023-05-02T13:04:50.761Z,14.02
2023-05-02T13:07:18.389Z,14.14
2023-05-02T13:09:49.828Z,14.03
2023-05-02T13:12:18.197Z,14.54
2023-05-02T13:14:45.992Z,13.90
2023-05-02T13:17:14.232Z,13.87
2023-05-02T13:19:50.492Z,13.92
2023-05-02T13:22:21.720Z,14.31
2023-05-02T13:24:50.493Z,14.25
2023-05-02T13:27:18.660Z,14.50
2023-05-02T13:29:47.532Z,14.77
2023-05-02T13:32:15.145Z,15.02
2023-05-02T13:34:44.321Z,14.95
2023-05-02T13:37:12.092Z,15.38
2023-05-02T13:39:39.695Z,14.95
2023-05-02T13:42:08.118Z,15.34
2023-05-02T13:44:36.476Z,14.60
2023-05-02T13:47:04.189Z,15.26
2023-05-02T13:49:31.776Z,14.91
2023-05-02T13:52:04.585Z,14.93
2023-05-02T13:54:35.747Z,14.67
2023-05-02T13:57:05.552Z,14.31
2023-05-02T13:59:33.100Z,13.87
2023-05-02T14:02:00.955Z,13.57
2023-05-02T14:04:28.948Z,13.36
2023-05-02T14:06:56.574Z,12.57
2023-05-02T14:09:25.641Z,12.18
2023-05-02T14:11:53.192Z,11.85
2023-05-02T14:14:20.804Z,11.69
2023-05-02T14:16:50.221Z,11.82
2023-05-02T14:19:18.297Z,11.61
2023-05-02T14:21:45.822Z,11.35
2023-05-02T14:24:14.917Z,11.08
2023-05-02T14:26:43.826Z,11.15
2023-05-02T14:29:11.395Z,10.75
2023-05-02T14:31:39.093Z,10.64
2023-05-02T14:34:09.726Z,10.49
2023-05-02T14:36:37.401Z,10.38
2023-05-02T14:39:06.230Z,10.22
2023-05-02T14:41:33.763Z,10.41
2023-05-02T14:44:02.713Z,10.16
2023-05-02T14:46:30.261Z,10.28
2023-05-02T14:48:57.856Z,10.39
2023-05-02T14:51:25.585Z,10.27
2023-05-02T14:53:54.375Z,10.45
2023-05-02T14:56:22.185Z,10.32
2023-05-02T14:58:49.758Z,10.26
2023-05-02T15:01:18.886Z,10.47
2023-05-02T15:04:04.338Z,10.43
2023-05-02T15:06:34.066Z,10.39
2023-05-02T15:09:05.121Z,10.13
2023-05-02T15:11:32.976Z,10.13
2023-05-02T15:14:00.946Z,10.26
2023-05-02T15:16:29.940Z,10.30
2023-05-02T15:18:57.611Z,10.27
2023-05-02T15:21:25.167Z,10.52
2023-05-02T15:23:52.977Z,10.30
2023-05-02T15:26:21.283Z,10.22
2023-05-02T15:28:48.888Z,10.72
2023-05-02T15:31:16.533Z,10.80
2023-05-02T15:33:45.548Z,11.07
2023-05-02T15:36:13.216Z,10.50
2023-05-02T15:38:42.835Z,10.36
2023-05-02T15:41:10.836Z,10.73
2023-05-02T15:43:38.526Z,10.49
2023-05-02T15:46:06.150Z,10.46
2023-05-02T15:48:34.911Z,10.71
2023-05-02T15:51:05.754Z,11.03
2023-05-02T15:53:34.642Z,11.22
2023-05-02T15:56:04.002Z,10.96
2023-05-02T15:58:31.566Z,11.17
2023-05-02T16:00:59.173Z,11.14
2023-05-02T16:03:26.826Z,11.03
2023-05-02T16:05:54.940Z,11.10
2023-05-02T16:08:24.004Z,10.88
2023-05-02T16:10:51.772Z,10.91
2023-05-02T16:13:19.559Z,10.61
2023-05-02T16:15:48.237Z,10.40
2023-05-02T16:18:16.036Z,10.51
2023-05-02T16:20:45.989Z,10.32
2023-05-02T16:23:13.739Z,10.18
2023-05-02T16:25:45.941Z,10.26
2023-05-02T16:28:13.792Z,10.63
2023-05-02T16:30:44.854Z,10.28
2023-05-02T16:33:13.240Z,10.21
2023-05-02T16:35:41.075Z,10.22
2023-05-02T16:38:09.110Z,10.19
2023-05-02T16:40:36.966Z,10.19
2023-05-02T16:43:25.559Z,10.37
2023-05-02T16:46:00.896Z,10.03
2023-05-02T16:48:28.707Z,10.26
2023-05-02T16:50:57.144Z,10.15
2023-05-02T16:53:25.199Z,10.17
2023-05-02T16:55:53.016Z,10.23
2023-05-02T16:58:20.809Z,10.15
2023-05-02T17:00:50.426Z,9.97
2023-05-02T17:03:18.373Z,10.03
2023-05-02T17:05:46.599Z,10.04
2023-05-02T17:08:16.941Z,9.94
2023-05-02T17:10:49.616Z,9.96
2023-05-02T17:13:17.591Z,10.02
2023-05-02T17:15:45.651Z,9.95
2023-05-02T17:18:14.829Z,10.07
2023-05-02T17:20:42.861Z,10.08
2023-05-02T17:23:11.110Z,10.72
2023-05-02T17:25:39.581Z,10.25
2023-05-02T17:28:07.907Z,10.08
2023-05-02T17:30:35.814Z,10.29
2023-05-02T17:33:03.828Z,10.23
2023-05-02T17:35:33.229Z,10.23
2023-05-02T17:38:01.045Z,10.39
2023-05-02T17:40:29.874Z,10.31
2023-05-02T17:42:58.899Z,9.97
2023-05-02T17:45:31.136Z,10.14
2023-05-02T17:48:03.751Z,10.03
2023-05-02T17:50:37.349Z,10.21
2023-05-02T17:53:12.651Z,10.46
2023-05-02T17:55:40.651Z,10.54
2023-05-02T17:58:08.521Z,10.30
2023-05-02T18:00:38.580Z,10.33
2023-05-02T18:03:08.317Z,10.55
2023-05-02T18:05:40.042Z,10.27
2023-05-02T18:08:08.366Z,9.89
2023-05-02T18:10:39.975Z,9.98
2023-05-02T18:13:09.022Z,9.94
2023-05-02T18:15:37.003Z,9.72
2023-05-02T18:18:04.954Z,9.89
2023-05-02T18:20:32.889Z,9.66
2023-05-02T18:23:02.609Z,9.64
2023-05-02T18:25:33.040Z,9.77
2023-05-02T18:28:00.897Z,9.43
2023-05-02T18:30:28.646Z,9.23
2023-05-02T18:32:56.611Z,9.30
2023-05-02T18:35:25.264Z,9.46
2023-05-02T18:38:24.764Z,9.61
2023-05-02T18:40:45.878Z,9.58
2023-05-02T18:43:13.855Z,9.76
2023-05-02T18:45:43.345Z,9.96
2023-05-02T18:48:13.791Z,9.88
2023-05-02T18:50:41.847Z,9.81
2023-05-02T18:53:09.920Z,9.48
2023-05-02T18:55:39.520Z,9.69
2023-05-02T18:58:09.306Z,9.38
2023-05-02T19:00:37.461Z,9.38
2023-05-02T19:03:05.594Z,9.57
2023-05-02T19:05:34.726Z,9.43
2023-05-02T19:08:03.556Z,9.57
2023-05-02T19:10:34.402Z,9.21
2023-05-02T19:13:02.201Z,9.24
2023-05-02T19:15:31.409Z,9.08
2023-05-02T19:17:59.296Z,9.26
2023-05-02T19:20:28.151Z,9.34
2023-05-02T19:23:07.075Z,9.29
2023-05-02T19:25:52.640Z,9.23
2023-05-02T19:28:20.650Z,9.04
2023-05-02T19:30:49.838Z,9.17
2023-05-02T19:33:17.653Z,9.27
2023-05-02T19:35:47.192Z,8.99
2023-05-02T19:38:15.190Z,8.87
2023-05-02T19:40:43.383Z,9.04
2023-05-02T19:43:11.735Z,8.91
2023-05-02T19:45:39.879Z,9.19
2023-05-02T19:48:09.618Z,9.12
2023-05-02T19:50:39.226Z,8.82
2023-05-02T19:53:07.384Z,9.08
2023-05-02T19:55:35.169Z,9.33
2023-05-02T19:58:04.650Z,9.03
2023-05-02T20:00:35.523Z,9.51
2023-05-02T20:03:10.180Z,9.29
2023-05-02T20:05:43.441Z,9.41
2023-05-02T20:08:16.330Z,9.37
2023-05-02T20:10:44.450Z,9.28
2023-05-02T20:13:12.481Z,9.04
2023-05-02T20:15:41.548Z,8.85
2023-05-02T20:18:09.872Z,9.41
2023-05-02T20:20:39.152Z,9.09
2023-05-02T20:23:07.069Z,9.52
2023-05-02T20:25:35.206Z,9.07
2023-05-02T20:28:04.125Z,8.86
2023-05-02T20:30:33.217Z,8.75
2023-05-02T20:33:14.069Z,9.10
2023-05-02T20:35:45.391Z,9.27
2023-05-02T20:38:17.788Z,8.87
2023-05-02T20:40:45.725Z,8.91
2023-05-02T20:43:14.351Z,9.00
2023-05-02T20:45:42.550Z,8.92
2023-05-02T20:48:10.737Z,8.84
2023-05-02T20:50:38.680Z,8.90
2023-05-02T20:53:07.839Z,8.90
2023-05-02T20:55:38.671Z,9.12
2023-05-02T20:58:06.600Z,9.65
2023-05-02T21:00:34.627Z,9.56
2023-05-02T21:03:02.570Z,9.72
2023-05-02T21:09:17.842Z,9.61
2023-05-02T21:11:46.236Z,9.77
2023-05-02T21:14:14.145Z,9.30
2023-05-02T21:16:42.162Z,9.19
2023-05-02T21:19:09.956Z,9.05
2023-05-02T21:21:39.600Z,8.79
2023-05-02T21:24:08.740Z,8.87
2023-05-02T21:26:41.450Z,8.94
2023-05-02T21:29:10.788Z,9.13
2023-05-02T21:31:39.551Z,8.81
2023-05-02T21:34:07.596Z,8.81
2023-05-02T21:36:35.762Z,8.77
2023-05-02T21:39:03.526Z,9.03
2023-05-02T21:41:31.361Z,8.50
2023-05-02T21:44:20.462Z,9.06
2023-05-02T21:46:48.660Z,9.02
2023-05-02T21:49:16.610Z,8.90
2023-05-02T21:51:44.503Z,8.87
2023-05-02T21:54:12.243Z,9.24
2023-05-02T21:56:40.319Z,9.16
2023-05-02T21:59:08.092Z,9.16
2023-05-02T22:01:37.449Z,8.93
2023-05-02T22:04:05.607Z,8.80
2023-05-02T22:06:34.826Z,8.77
2023-05-02T22:09:02.674Z,8.99
2023-05-02T22:11:31.571Z,8.82
2023-05-02T22:13:59.396Z,8.88
2023-05-02T22:16:27.742Z,8.61
2023-05-02T22:18:57.996Z,8.24
2023-05-02T22:21:32.759Z,8.26
2023-05-02T22:24:00.812Z,8.15
2023-05-02T22:26:28.627Z,8.71
2023-05-02T22:28:56.347Z,8.06
2023-05-02T22:31:24.184Z,8.02
2023-05-02T22:33:52.200Z,8.15
2023-05-02T22:36:21.384Z,8.37
2023-05-02T22:38:50.456Z,7.97
2023-05-02T22:41:18.263Z,7.83
2023-05-02T22:43:46.212Z,8.11
2023-05-02T22:46:13.987Z,8.41
2023-05-02T22:48:41.781Z,8.23
2023-05-02T22:51:09.610Z,8.26
2023-05-02T22:53:38.767Z,8.16
2023-05-02T22:56:07.008Z,7.67
2023-05-02T22:58:34.811Z,7.49
2023-05-02T23:01:02.807Z,7.61
2023-05-02T23:03:30.736Z,7.62
2023-05-02T23:05:58.591Z,7.41
2023-05-02T23:08:26.307Z,7.47
2023-05-02T23:10:55.976Z,7.54
2023-05-02T23:13:23.771Z,7.53
2023-05-02T23:15:53.814Z,7.40
2023-05-02T23:18:21.809Z,7.26
2023-05-02T23:20:52.035Z,7.61
2023-05-02T23:23:19.748Z,7.48
2023-05-02T23:25:47.572Z,7.48
2023-05-02T23:28:16.643Z,7.60
2023-05-02T23:30:44.413Z,7.25
2023-05-02T23:33:12.196Z,7.50
2023-05-02T23:35:40.028Z,7.54
2023-05-02T23:38:08.125Z,7.12
2023-05-02T23:40:36.044Z,7.40
2023-05-02T23:43:03.763Z,7.30
2023-05-02T23:45:32.862Z,7.23
2023-05-02T23:48:00.599Z,7.31
2023-05-02T23:50:28.507Z,7.47
2023-05-02T23:52:56.229Z,7.69
2023-05-02T23:55:24.022Z,7.83
2023-05-02T23:57:51.759Z,7.35
